QFA64 FAOR-YSSY
Flight info
| Callsign | QFA64 |
|---|---|
| Flight time | N/A |
| Altitude | 35000 |
| Route | APDAK1B APDAK UQ48 APMAT DCT 3139S03249E 3305S03404E 3558S03720E 3901S04139E 4207S04637E 4459S05133E/N0488F360 4745S05633E 5036S06233E/N0479F370 5256S06914E 5358S07500E 5404S07544E 5451S08409E 5458S08816E 5438S09747E 5402S10424E/N0492F390 5305S11152E 5135S12053E 4920S12933E 4701S13634E 4439S14119E 4046S14617E DCT MAKRL/N0490F400 J163 CB/N0491F410 W423 CULIN Y59 RIVET |
| Aircraft | A388/J-SADE2E3FGHIJ3J4J5M1RWXY/LB1D1 |
Departure
| Time | N/A |
|---|---|
| Airport | O.R. Tambo International Airport (FAOR) |
Arrival
| Time | 2026-05-04 08:51 |
|---|---|
| Airport | Sydney Kingsford Smith International Airport (YSSY) |
| Time | Latitude | Longitude | Altitude | Speed | Heading |
|---|---|---|---|---|---|
| 2026-05-04 07:44 | -39.15786 | 147.81958 | 44896 ft | 507 kts | 30° |
| 2026-05-04 07:44 | -39.12964 | 147.84573 | 44898 ft | 507 kts | 30° |
| 2026-05-04 07:44 | -39.07233 | 147.89876 | 44902 ft | 507 kts | 29° |
| 2026-05-04 07:45 | -39.01498 | 147.95170 | 44905 ft | 507 kts | 29° |
| 2026-05-04 07:45 | -38.95757 | 148.00460 | 44907 ft | 507 kts | 29° |
| 2026-05-04 07:46 | -38.90014 | 148.05741 | 44909 ft | 508 kts | 29° |
| 2026-05-04 07:46 | -38.84269 | 148.11014 | 44919 ft | 508 kts | 29° |
| 2026-05-04 07:47 | -38.78513 | 148.16284 | 44916 ft | 508 kts | 29° |
| 2026-05-04 07:49 | -38.55538 | 148.37221 | 44919 ft | 506 kts | 28° |
| 2026-05-04 07:49 | -38.49740 | 148.42295 | 44920 ft | 499 kts | 21° |
| 2026-05-04 07:50 | -38.46594 | 148.44035 | 44917 ft | 488 kts | 10° |
| 2026-05-04 07:50 | -38.43306 | 148.44981 | 44926 ft | 479 kts | 2° |
| 2026-05-04 07:50 | -38.36750 | 148.46187 | 44925 ft | 479 kts | 3° |
| 2026-05-04 07:51 | -38.30192 | 148.47732 | 44929 ft | 480 kts | 5° |
| 2026-05-04 07:51 | -38.23658 | 148.49466 | 44928 ft | 480 kts | 5° |
| 2026-05-04 07:52 | -38.17121 | 148.51226 | 44927 ft | 480 kts | 5° |
| 2026-05-04 07:52 | -38.10587 | 148.52977 | 44933 ft | 480 kts | 5° |
| 2026-05-04 07:54 | -37.84428 | 148.59944 | 44563 ft | 479 kts | 5° |
| 2026-05-04 07:55 | -37.81209 | 148.60798 | 43998 ft | 478 kts | 5° |
| 2026-05-04 07:55 | -37.77956 | 148.61661 | 43418 ft | 476 kts | 5° |
| 2026-05-04 07:55 | -37.74731 | 148.62517 | 42991 ft | 471 kts | 5° |
| 2026-05-04 07:55 | -37.71536 | 148.63365 | 42561 ft | 466 kts | 5° |
| 2026-05-04 07:56 | -37.68374 | 148.64201 | 42056 ft | 463 kts | 5° |
| 2026-05-04 07:56 | -37.65228 | 148.65031 | 41494 ft | 461 kts | 5° |
| 2026-05-04 07:56 | -37.62091 | 148.65857 | 40951 ft | 459 kts | 5° |
| 2026-05-04 07:56 | -37.58963 | 148.66681 | 40393 ft | 458 kts | 5° |
| 2026-05-04 07:57 | -37.55853 | 148.67500 | 39888 ft | 455 kts | 4° |
| 2026-05-04 07:57 | -37.52758 | 148.68315 | 39370 ft | 453 kts | 4° |
| 2026-05-04 07:57 | -37.49676 | 148.69125 | 38847 ft | 451 kts | 4° |
| 2026-05-04 07:57 | -37.46617 | 148.69930 | 38285 ft | 448 kts | 4° |
| 2026-05-04 07:58 | -37.43609 | 148.70720 | 37706 ft | 445 kts | 4° |
| 2026-05-04 07:58 | -37.40587 | 148.71512 | 37051 ft | 443 kts | 4° |
| 2026-05-04 07:58 | -37.37570 | 148.72302 | 36435 ft | 440 kts | 4° |
| 2026-05-04 07:58 | -37.34577 | 148.73086 | 35781 ft | 438 kts | 4° |
| 2026-05-04 07:59 | -37.31605 | 148.73863 | 35136 ft | 436 kts | 4° |
| 2026-05-04 07:59 | -37.28635 | 148.74640 | 34442 ft | 434 kts | 4° |
| 2026-05-04 07:59 | -37.25686 | 148.75410 | 33752 ft | 431 kts | 5° |
| 2026-05-04 07:59 | -37.22747 | 148.76176 | 32815 ft | 431 kts | 5° |
| 2026-05-04 08:00 | -37.19839 | 148.76931 | 31826 ft | 433 kts | 5° |
| 2026-05-04 08:00 | -37.16880 | 148.77700 | 31006 ft | 432 kts | 5° |
| 2026-05-04 08:00 | -37.13958 | 148.78464 | 30333 ft | 427 kts | 5° |
| 2026-05-04 08:02 | -36.94358 | 148.83556 | 25296 ft | 397 kts | 6° |
| 2026-05-04 08:02 | -36.91671 | 148.84252 | 25066 ft | 393 kts | 6° |
| 2026-05-04 08:02 | -36.88971 | 148.84948 | 24997 ft | 397 kts | 6° |
| 2026-05-04 08:03 | -36.86253 | 148.85647 | 24996 ft | 399 kts | 6° |
| 2026-05-04 08:03 | -36.83533 | 148.86349 | 24999 ft | 399 kts | 6° |
| 2026-05-04 08:03 | -36.80815 | 148.87051 | 24996 ft | 399 kts | 6° |
| 2026-05-04 08:03 | -36.79018 | 148.87515 | 24999 ft | 398 kts | 6° |
| 2026-05-04 08:04 | -36.76299 | 148.88217 | 25000 ft | 399 kts | 6° |
| 2026-05-04 08:04 | -36.73584 | 148.88916 | 25000 ft | 399 kts | 5° |
| 2026-05-04 08:04 | -36.69973 | 148.89845 | 24996 ft | 399 kts | 6° |
| 2026-05-04 08:04 | -36.67246 | 148.90546 | 24998 ft | 399 kts | 5° |
| 2026-05-04 08:05 | -36.64520 | 148.91246 | 24994 ft | 399 kts | 5° |
| 2026-05-04 08:05 | -36.62722 | 148.91708 | 24993 ft | 399 kts | 5° |
| 2026-05-04 08:05 | -36.59999 | 148.92407 | 24993 ft | 399 kts | 5° |
| 2026-05-04 08:05 | -36.57270 | 148.93107 | 24996 ft | 400 kts | 5° |
| 2026-05-04 08:06 | -36.54542 | 148.93806 | 25004 ft | 400 kts | 5° |
| 2026-05-04 08:06 | -36.51806 | 148.94506 | 25002 ft | 400 kts | 5° |
| 2026-05-04 08:06 | -36.49081 | 148.95204 | 25006 ft | 400 kts | 5° |
| 2026-05-04 08:06 | -36.46349 | 148.95903 | 25010 ft | 400 kts | 5° |
| 2026-05-04 08:08 | -36.27282 | 149.00765 | 25023 ft | 401 kts | 5° |
| 2026-05-04 08:08 | -36.24548 | 149.01460 | 25022 ft | 401 kts | 5° |
| 2026-05-04 08:10 | -36.02672 | 149.07005 | 25031 ft | 402 kts | 5° |
| 2026-05-04 08:11 | -35.99933 | 149.07697 | 25034 ft | 402 kts | 5° |
| 2026-05-04 08:11 | -35.94458 | 149.09077 | 25037 ft | 402 kts | 5° |
| 2026-05-04 08:11 | -35.91745 | 149.09761 | 25040 ft | 402 kts | 5° |
| 2026-05-04 08:12 | -35.88968 | 149.10460 | 25038 ft | 403 kts | 5° |
| 2026-05-04 08:12 | -35.86245 | 149.11146 | 25039 ft | 402 kts | 5° |
| 2026-05-04 08:12 | -35.83512 | 149.11835 | 25041 ft | 401 kts | 5° |
| 2026-05-04 08:12 | -35.80771 | 149.12523 | 25042 ft | 402 kts | 5° |
| 2026-05-04 08:13 | -35.78029 | 149.13210 | 25042 ft | 403 kts | 5° |
| 2026-05-04 08:13 | -35.75277 | 149.13902 | 25040 ft | 402 kts | 5° |
| 2026-05-04 08:13 | -35.72532 | 149.14592 | 25044 ft | 402 kts | 5° |
| 2026-05-04 08:13 | -35.69791 | 149.15280 | 25044 ft | 403 kts | 5° |
| 2026-05-04 08:14 | -35.67043 | 149.15967 | 25046 ft | 402 kts | 5° |
| 2026-05-04 08:14 | -35.64331 | 149.16646 | 25050 ft | 403 kts | 5° |
| 2026-05-04 08:14 | -35.61544 | 149.17343 | 25046 ft | 404 kts | 5° |
| 2026-05-04 08:16 | -35.42295 | 149.22147 | 25051 ft | 404 kts | 5° |
| 2026-05-04 08:16 | -35.39528 | 149.22835 | 25049 ft | 405 kts | 5° |
| 2026-05-04 08:16 | -35.36765 | 149.23522 | 25039 ft | 405 kts | 5° |
| 2026-05-04 08:17 | -35.33999 | 149.24209 | 25045 ft | 405 kts | 5° |
| 2026-05-04 08:17 | -35.31243 | 149.24893 | 25044 ft | 405 kts | 5° |
| 2026-05-04 08:17 | -35.28484 | 149.25578 | 25041 ft | 405 kts | 5° |
| 2026-05-04 08:17 | -35.25718 | 149.26264 | 25050 ft | 405 kts | 5° |
| 2026-05-04 08:19 | -35.06369 | 149.31047 | 25061 ft | 406 kts | 4° |
| 2026-05-04 08:19 | -35.03597 | 149.31732 | 25060 ft | 407 kts | 4° |
| 2026-05-04 08:20 | -35.00823 | 149.32415 | 25061 ft | 407 kts | 4° |
| 2026-05-04 08:20 | -34.98049 | 149.33097 | 25069 ft | 407 kts | 4° |
| 2026-05-04 08:20 | -34.95275 | 149.33779 | 25065 ft | 407 kts | 4° |
| 2026-05-04 08:20 | -34.92497 | 149.34462 | 25067 ft | 407 kts | 4° |
| 2026-05-04 08:21 | -34.89716 | 149.35146 | 25070 ft | 407 kts | 4° |
| 2026-05-04 08:21 | -34.86939 | 149.35827 | 25067 ft | 408 kts | 4° |
| 2026-05-04 08:21 | -34.84155 | 149.36511 | 25070 ft | 409 kts | 4° |
| 2026-05-04 08:21 | -34.81344 | 149.37194 | 25074 ft | 424 kts | 5° |
| 2026-05-04 08:22 | -34.78445 | 149.38201 | 25071 ft | 443 kts | 14° |
| 2026-05-04 08:22 | -34.75672 | 149.39963 | 25075 ft | 459 kts | 26° |
| 2026-05-04 08:24 | -34.63607 | 149.62868 | 24024 ft | 427 kts | 53° |
| 2026-05-04 08:24 | -34.62190 | 149.66092 | 23783 ft | 428 kts | 53° |
| 2026-05-04 08:24 | -34.60783 | 149.69281 | 23530 ft | 428 kts | 53° |
| 2026-05-04 08:24 | -34.59382 | 149.72461 | 23269 ft | 426 kts | 53° |
| 2026-05-04 08:25 | -34.57985 | 149.75636 | 22992 ft | 425 kts | 53° |
| 2026-05-04 08:25 | -34.56614 | 149.78752 | 22729 ft | 424 kts | 54° |
| 2026-05-04 08:25 | -34.55226 | 149.81906 | 22461 ft | 422 kts | 54° |
| 2026-05-04 08:25 | -34.53851 | 149.85029 | 22194 ft | 419 kts | 54° |
| 2026-05-04 08:26 | -34.52479 | 149.88142 | 21929 ft | 418 kts | 54° |
| 2026-05-04 08:27 | -34.43009 | 150.09542 | 20155 ft | 404 kts | 55° |
| 2026-05-04 08:28 | -34.41677 | 150.12536 | 19911 ft | 404 kts | 55° |
| 2026-05-04 08:28 | -34.40349 | 150.15523 | 19666 ft | 402 kts | 55° |
| 2026-05-04 08:28 | -34.39023 | 150.18505 | 19162 ft | 400 kts | 55° |
| 2026-05-04 08:28 | -34.37709 | 150.21459 | 18597 ft | 396 kts | 56° |
| 2026-05-04 08:29 | -34.36413 | 150.24374 | 18014 ft | 387 kts | 56° |
| 2026-05-04 08:29 | -34.35155 | 150.27207 | 17478 ft | 376 kts | 56° |
| 2026-05-04 08:29 | -34.33931 | 150.29956 | 16965 ft | 366 kts | 55° |
| 2026-05-04 08:31 | -34.25884 | 150.47928 | 13578 ft | 337 kts | 56° |
| 2026-05-04 08:33 | -34.18241 | 150.64988 | 10425 ft | 323 kts | 56° |
| 2026-05-04 08:33 | -34.17195 | 150.67326 | 10264 ft | 309 kts | 56° |
| 2026-05-04 08:35 | -34.10390 | 150.82431 | 8786 ft | 274 kts | 54° |
| 2026-05-04 08:35 | -34.09503 | 150.84407 | 8531 ft | 263 kts | 54° |
| 2026-05-04 08:35 | -34.08633 | 150.86337 | 8273 ft | 265 kts | 54° |
| 2026-05-04 08:35 | -34.07743 | 150.88306 | 8010 ft | 265 kts | 54° |
| 2026-05-04 08:37 | -34.03477 | 150.97763 | 6700 ft | 259 kts | 56° |
| 2026-05-04 08:37 | -34.02941 | 150.99869 | 6439 ft | 271 kts | 82° |
| 2026-05-04 08:37 | -34.03249 | 151.02124 | 6151 ft | 279 kts | 111° |
| 2026-05-04 08:38 | -34.04382 | 151.04088 | 6015 ft | 296 kts | 134° |
| 2026-05-04 08:38 | -34.05928 | 151.05788 | 5994 ft | 304 kts | 139° |
| 2026-05-04 08:38 | -34.07595 | 151.07352 | 5994 ft | 304 kts | 152° |
| 2026-05-04 08:40 | -34.20146 | 151.14806 | 5989 ft | 305 kts | 132° |
| 2026-05-04 08:40 | -34.21842 | 151.16332 | 5994 ft | 305 kts | 158° |
| 2026-05-04 08:40 | -34.23882 | 151.16893 | 5990 ft | 298 kts | 185° |
| 2026-05-04 08:41 | -34.25727 | 151.16651 | 5988 ft | 296 kts | 193° |
| 2026-05-04 08:41 | -34.27768 | 151.16282 | 5989 ft | 295 kts | 192° |
| 2026-05-04 08:41 | -34.29832 | 151.16345 | 5986 ft | 302 kts | 168° |
| 2026-05-04 08:41 | -34.31717 | 151.17388 | 5840 ft | 305 kts | 143° |
| 2026-05-04 08:42 | -34.33125 | 151.19264 | 5516 ft | 297 kts | 117° |
| 2026-05-04 08:42 | -34.33743 | 151.21577 | 5164 ft | 286 kts | 90° |
| 2026-05-04 08:42 | -34.33494 | 151.23886 | 4801 ft | 271 kts | 63° |
| 2026-05-04 08:42 | -34.32473 | 151.25700 | 4425 ft | 255 kts | 35° |
| 2026-05-04 08:43 | -34.30937 | 151.26567 | 4053 ft | 240 kts | 6° |
| 2026-05-04 08:43 | -34.29296 | 151.26582 | 3690 ft | 234 kts | 351° |
| 2026-05-04 08:43 | -34.27716 | 151.26233 | 3419 ft | 227 kts | 346° |
| 2026-05-04 08:43 | -34.26218 | 151.25826 | 3337 ft | 214 kts | 346° |
| 2026-05-04 08:44 | -34.24802 | 151.25460 | 3088 ft | 210 kts | 347° |
| 2026-05-04 08:44 | -34.23371 | 151.25087 | 2992 ft | 209 kts | 346° |
| 2026-05-04 08:46 | -34.14966 | 151.22897 | 2996 ft | 168 kts | 347° |
| 2026-05-04 08:46 | -34.13836 | 151.22602 | 2989 ft | 161 kts | 346° |
| 2026-05-04 08:46 | -34.12795 | 151.22331 | 2999 ft | 152 kts | 346° |
| 2026-05-04 08:46 | -34.11768 | 151.22063 | 2994 ft | 153 kts | 345° |
| 2026-05-04 08:47 | -34.10724 | 151.21791 | 2837 ft | 151 kts | 346° |
| 2026-05-04 08:47 | -34.09765 | 151.21543 | 2662 ft | 131 kts | 346° |
| 2026-05-04 08:47 | -34.08888 | 151.21312 | 2483 ft | 127 kts | 346° |
| 2026-05-04 08:47 | -34.08018 | 151.21088 | 2323 ft | 128 kts | 348° |
| 2026-05-04 08:48 | -34.07149 | 151.20861 | 2150 ft | 128 kts | 348° |
| 2026-05-04 08:48 | -34.06285 | 151.20634 | 1988 ft | 127 kts | 348° |
| 2026-05-04 08:48 | -34.05416 | 151.20410 | 1819 ft | 129 kts | 349° |
| 2026-05-04 08:48 | -34.04533 | 151.20178 | 1655 ft | 129 kts | 349° |
| 2026-05-04 08:49 | -34.03671 | 151.19952 | 1472 ft | 128 kts | 349° |
| 2026-05-04 08:50 | -33.98363 | 151.18576 | 435 ft | 130 kts | 350° |
| 2026-05-04 08:50 | -33.97490 | 151.18347 | 276 ft | 126 kts | 349° |
| 2026-05-04 08:51 | -33.96634 | 151.18124 | 118 ft | 129 kts | 349° |
| 2026-05-04 08:51 | -33.95785 | 151.17904 | 34 ft | 111 kts | 348° |
| 2026-05-04 08:51 | -33.95193 | 151.17747 | 34 ft | 56 kts | 347° |
| 2026-05-04 08:51 | -33.94913 | 151.17672 | 34 ft | 39 kts | 347° |
| 2026-05-04 08:52 | -33.94670 | 151.17604 | 35 ft | 31 kts | 341° |
| 2026-05-04 08:52 | -33.94497 | 151.17519 | 35 ft | 24 kts | 331° |
| 2026-05-04 08:52 | -33.94405 | 151.17421 | 35 ft | 0 kts | 322° |
| 2026-05-04 08:54 | -33.93801 | 151.17184 | 34 ft | 18 kts | 348° |
| 2026-05-04 08:55 | -33.93679 | 151.17151 | 34 ft | 18 kts | 346° |
| 2026-05-04 08:55 | -33.93560 | 151.17116 | 34 ft | 18 kts | 346° |
| 2026-05-04 08:55 | -33.93505 | 151.17029 | 35 ft | 14 kts | 264° |
| 2026-05-04 08:55 | -33.93483 | 151.16927 | 35 ft | 12 kts | 326° |
| 2026-05-04 08:57 | -33.93400 | 151.16781 | 35 ft | 0 kts | 259° |